createdAt,value
2023-05-19T00:00:29.265Z,100.00
2023-05-19T00:05:31.229Z,100.00
2023-05-19T00:10:33.366Z,100.00
2023-05-19T00:15:35.405Z,100.00
2023-05-19T00:20:36.914Z,100.00
2023-05-19T00:25:38.380Z,100.00
2023-05-19T00:30:39.837Z,100.00
2023-05-19T00:35:41.287Z,100.00
2023-05-19T00:40:43.117Z,100.00
2023-05-19T00:45:44.589Z,100.00
2023-05-19T00:50:46.268Z,100.00
2023-05-19T00:55:48.571Z,100.00
2023-05-19T01:00:50.411Z,100.00
2023-05-19T01:05:52.189Z,100.00
2023-05-19T01:10:53.633Z,100.00
2023-05-19T01:16:00.995Z,100.00
2023-05-19T01:21:46.178Z,100.00
2023-05-19T01:27:36.931Z,100.00
2023-05-19T01:32:41.247Z,100.00
2023-05-19T01:37:43.700Z,100.00
2023-05-19T01:42:47.057Z,100.00
2023-05-19T01:47:52.208Z,100.00
2023-05-19T01:52:53.910Z,100.00
2023-05-19T01:58:30.713Z,100.00
2023-05-19T02:03:50.615Z,100.00
2023-05-19T02:08:52.139Z,100.00
2023-05-19T02:13:56.911Z,100.00
2023-05-19T02:18:58.552Z,100.00
2023-05-19T02:24:00.122Z,100.00
2023-05-19T02:29:01.600Z,100.00
2023-05-19T02:34:03.106Z,100.00
2023-05-19T02:39:04.731Z,100.00
2023-05-19T02:44:06.272Z,100.00
2023-05-19T02:49:07.942Z,100.00
2023-05-19T02:54:09.431Z,100.00
2023-05-19T02:59:10.915Z,100.00
2023-05-19T03:04:12.498Z,100.00
2023-05-19T03:09:14.038Z,100.00
2023-05-19T03:14:15.689Z,100.00
2023-05-19T03:19:17.261Z,100.00
2023-05-19T03:24:18.810Z,100.00
2023-05-19T03:29:20.294Z,100.00
2023-05-19T03:34:22.003Z,100.00
2023-05-19T03:39:24.742Z,100.00
2023-05-19T03:44:26.706Z,100.00
2023-05-19T03:49:28.953Z,100.00
2023-05-19T03:54:40.922Z,100.00
2023-05-19T03:59:42.490Z,100.00
2023-05-19T04:04:44.023Z,100.00
2023-05-19T04:09:45.594Z,100.00
2023-05-19T04:14:47.046Z,100.00
2023-05-19T04:19:48.500Z,100.00
2023-05-19T04:24:49.991Z,100.00
2023-05-19T04:29:51.585Z,100.00
2023-05-19T04:34:53.241Z,100.00
2023-05-19T04:39:59.340Z,100.00
2023-05-19T04:45:02.302Z,100.00
2023-05-19T04:50:05.687Z,100.00
2023-05-19T04:55:07.567Z,100.00
2023-05-19T05:00:10.451Z,100.00
2023-05-19T05:05:20.727Z,100.00
2023-05-19T05:10:22.257Z,100.00
2023-05-19T05:15:24.080Z,100.00
2023-05-19T05:20:26.688Z,100.00
2023-05-19T05:25:28.834Z,100.00
2023-05-19T05:30:31.768Z,100.00
2023-05-19T05:35:33.671Z,100.00
2023-05-19T05:40:35.545Z,100.00
2023-05-19T05:45:38.750Z,100.00
2023-05-19T05:50:43.354Z,100.00
2023-05-19T05:55:46.391Z,100.00
2023-05-19T06:00:49.025Z,100.00
2023-05-19T06:05:50.697Z,100.00
2023-05-19T06:10:52.948Z,100.00
2023-05-19T06:15:54.528Z,100.00
2023-05-19T06:21:01.183Z,100.00
2023-05-19T06:26:02.710Z,100.00
2023-05-19T06:31:05.224Z,100.00
2023-05-19T06:36:17.286Z,100.00
2023-05-19T06:41:20.178Z,100.00
2023-05-19T06:46:22.706Z,100.00
2023-05-19T06:51:24.218Z,100.00
2023-05-19T06:56:30.198Z,100.00
2023-05-19T07:01:31.804Z,100.00
2023-05-19T07:06:34.133Z,100.00
2023-05-19T07:11:35.957Z,100.00
2023-05-19T07:16:37.789Z,100.00
2023-05-19T07:21:40.654Z,98.64
2023-05-19T07:26:42.260Z,98.60
2023-05-19T07:31:43.792Z,95.02
2023-05-19T07:36:45.273Z,100.00
2023-05-19T07:41:46.792Z,100.00
2023-05-19T07:46:48.298Z,81.29
2023-05-19T07:51:49.836Z,67.84
2023-05-19T07:56:51.386Z,64.83
2023-05-19T08:01:52.856Z,76.24
2023-05-19T08:06:54.343Z,85.14
2023-05-19T08:11:55.879Z,79.30
2023-05-19T08:16:57.397Z,70.31
2023-05-19T08:21:58.905Z,61.12
2023-05-19T08:27:00.439Z,63.20
2023-05-19T08:32:02.010Z,61.85
2023-05-19T08:37:03.575Z,60.14
2023-05-19T08:42:05.481Z,56.50
2023-05-19T08:47:07.782Z,60.42
2023-05-19T08:58:12.873Z,58.39
2023-05-19T09:03:22.763Z,56.53
2023-05-19T09:08:25.092Z,57.16
2023-05-19T09:13:26.841Z,58.08
2023-05-19T09:18:28.336Z,58.89
2023-05-19T09:23:32.153Z,61.29
2023-05-19T09:28:35.312Z,63.69
2023-05-19T09:33:37.914Z,64.62
2023-05-19T09:38:39.672Z,59.62
2023-05-19T09:43:41.117Z,57.09
2023-05-19T09:48:42.653Z,56.30
2023-05-19T09:53:46.397Z,54.91
2023-05-19T09:58:48.619Z,56.27
2023-05-19T10:03:50.950Z,53.74
2023-05-19T10:08:53.026Z,52.37
2023-05-19T10:13:54.622Z,51.88
2023-05-19T10:18:58.480Z,51.53
2023-05-19T10:23:59.992Z,50.62
2023-05-19T10:29:03.292Z,50.42
2023-05-19T10:34:04.731Z,50.48
2023-05-19T10:39:11.292Z,51.48
2023-05-19T10:44:28.094Z,51.89
2023-05-19T10:49:35.056Z,50.23
2023-05-19T10:54:40.388Z,50.84
2023-05-19T10:59:41.768Z,49.63
2023-05-19T11:04:49.532Z,49.54
2023-05-19T11:09:53.305Z,49.33
2023-05-19T11:14:55.294Z,49.61
2023-05-19T11:19:57.764Z,49.43
2023-05-19T11:24:59.251Z,49.69
2023-05-19T11:30:08.232Z,48.00
2023-05-19T11:35:10.392Z,46.73
2023-05-19T11:40:13.219Z,48.52
2023-05-19T11:45:14.698Z,47.68
2023-05-19T11:50:16.553Z,47.29
2023-05-19T11:55:19.924Z,48.80
2023-05-19T12:00:22.769Z,48.37
2023-05-19T12:05:26.115Z,46.19
2023-05-19T12:10:29.128Z,43.85
2023-05-19T12:15:31.944Z,44.14
2023-05-19T12:20:34.131Z,43.01
2023-05-19T12:25:35.939Z,43.73
2023-05-19T12:30:37.938Z,45.79
2023-05-19T12:35:39.862Z,45.91
2023-05-19T12:40:41.630Z,46.45
2023-05-19T12:45:43.120Z,46.89
2023-05-19T12:50:44.765Z,46.49
2023-05-19T12:55:46.251Z,44.13
2023-05-19T13:00:48.415Z,45.32
2023-05-19T13:05:50.875Z,47.21
2023-05-19T13:10:52.328Z,45.37
2023-05-19T13:15:53.831Z,43.81
2023-05-19T13:20:55.270Z,44.29
2023-05-19T13:25:56.751Z,43.33
2023-05-19T13:30:58.243Z,43.66
2023-05-19T13:35:59.776Z,43.60
2023-05-19T13:41:01.245Z,43.47
2023-05-19T13:46:02.804Z,42.58
2023-05-19T13:51:04.372Z,41.94
2023-05-19T13:56:07.086Z,41.97
2023-05-19T14:01:08.625Z,43.83
2023-05-19T14:06:10.161Z,45.50
2023-05-19T14:11:18.216Z,45.81
2023-05-19T14:16:19.952Z,46.98
2023-05-19T14:21:21.623Z,45.38
2023-05-19T14:26:23.168Z,45.00
2023-05-19T14:31:24.822Z,44.41
2023-05-19T14:36:26.945Z,45.18
2023-05-19T14:41:28.422Z,43.42
2023-05-19T14:46:29.952Z,44.32
2023-05-19T14:51:31.454Z,45.75
2023-05-19T14:56:32.963Z,45.95
2023-05-19T15:01:34.465Z,44.77
2023-05-19T15:06:35.935Z,44.55
2023-05-19T15:11:37.419Z,45.14
2023-05-19T15:16:38.922Z,45.58
2023-05-19T15:21:40.391Z,45.60
2023-05-19T15:26:42.015Z,46.09
2023-05-19T15:31:43.736Z,45.13
2023-05-19T15:36:45.264Z,45.99
2023-05-19T15:41:46.724Z,46.16
2023-05-19T15:46:48.340Z,47.13
2023-05-19T15:51:49.901Z,46.73
2023-05-19T15:56:51.359Z,45.69
2023-05-19T16:01:53.308Z,45.79
2023-05-19T16:06:54.899Z,47.08
2023-05-19T16:11:56.335Z,46.61
2023-05-19T16:16:57.770Z,47.62
2023-05-19T16:21:59.246Z,48.86
2023-05-19T16:27:00.690Z,48.63
2023-05-19T16:32:02.240Z,48.63
2023-05-19T16:37:04.000Z,50.24
2023-05-19T16:42:05.677Z,52.43
2023-05-19T16:47:07.154Z,55.55
2023-05-19T16:52:08.621Z,55.82
2023-05-19T16:57:10.128Z,54.46
2023-05-19T17:02:11.667Z,55.66
2023-05-19T17:07:14.554Z,55.95
2023-05-19T17:12:16.040Z,57.00
2023-05-19T17:17:18.087Z,55.73
2023-05-19T17:22:19.569Z,56.30
2023-05-19T17:27:21.065Z,58.42
2023-05-19T17:32:22.638Z,59.58
2023-05-19T17:37:24.220Z,60.87
2023-05-19T17:42:25.706Z,60.70
2023-05-19T17:47:27.249Z,62.44
2023-05-19T17:52:29.167Z,64.36
2023-05-19T17:57:33.280Z,64.91
2023-05-19T18:02:35.078Z,66.95
2023-05-19T18:07:38.382Z,70.38
2023-05-19T18:12:39.838Z,72.53
2023-05-19T18:17:41.371Z,71.44
2023-05-19T18:22:42.897Z,78.47
2023-05-19T18:27:44.891Z,80.98
2023-05-19T18:32:46.382Z,80.25
2023-05-19T18:37:47.878Z,86.16
2023-05-19T18:42:50.362Z,87.50
2023-05-19T18:47:51.866Z,90.41
2023-05-19T18:52:53.383Z,90.64
2023-05-19T18:57:54.831Z,89.91
2023-05-19T19:02:56.413Z,91.95
2023-05-19T19:07:57.910Z,89.36
2023-05-19T19:12:59.675Z,84.88
2023-05-19T19:18:01.196Z,89.16
2023-05-19T19:23:02.837Z,86.29
2023-05-19T19:28:04.478Z,89.04
2023-05-19T19:33:06.831Z,88.11
2023-05-19T19:38:08.472Z,90.19
2023-05-19T19:43:09.967Z,85.71
2023-05-19T19:48:11.619Z,87.01
2023-05-19T19:53:13.163Z,87.58
2023-05-19T19:58:14.636Z,90.42
2023-05-19T20:03:16.193Z,87.59
2023-05-19T20:08:17.790Z,91.17
2023-05-19T20:13:19.351Z,93.46
2023-05-19T20:18:20.835Z,93.52
2023-05-19T20:23:22.421Z,93.94
2023-05-19T20:28:24.153Z,94.37
2023-05-19T20:33:25.766Z,95.76
2023-05-19T20:38:27.316Z,96.78
2023-05-19T20:43:28.823Z,96.83
2023-05-19T20:48:30.467Z,95.63
2023-05-19T20:53:31.951Z,97.07
2023-05-19T20:58:33.474Z,97.71
2023-05-19T21:03:34.970Z,98.72
2023-05-19T21:08:36.416Z,99.30
2023-05-19T21:13:37.892Z,99.64
2023-05-19T21:18:39.367Z,100.00
2023-05-19T21:23:40.906Z,100.00
2023-05-19T21:28:42.427Z,100.00
2023-05-19T21:33:44.163Z,100.00
2023-05-19T21:38:45.632Z,100.00
2023-05-19T21:43:47.286Z,100.00
2023-05-19T21:48:48.851Z,100.00
2023-05-19T21:53:50.349Z,100.00
2023-05-19T21:58:51.825Z,100.00
2023-05-19T22:03:53.337Z,100.00
2023-05-19T22:08:54.829Z,100.00
2023-05-19T22:13:56.294Z,100.00
2023-05-19T22:18:57.919Z,98.53
2023-05-19T22:23:59.614Z,97.38
2023-05-19T22:29:01.895Z,97.31
2023-05-19T22:34:03.404Z,99.17
2023-05-19T22:39:04.904Z,100.00
2023-05-19T22:44:06.406Z,100.00
2023-05-19T22:49:08.027Z,100.00
2023-05-19T22:54:09.485Z,100.00
2023-05-19T22:59:11.384Z,100.00
2023-05-19T23:04:12.906Z,100.00
2023-05-19T23:09:14.387Z,100.00
2023-05-19T23:14:16.026Z,99.82
2023-05-19T23:19:17.550Z,99.36
2023-05-19T23:24:19.112Z,98.01
2023-05-19T23:29:20.556Z,97.61
2023-05-19T23:34:22.022Z,97.74
2023-05-19T23:39:23.505Z,98.90
2023-05-19T23:44:24.988Z,98.47
2023-05-19T23:49:26.522Z,98.87
2023-05-19T23:54:28.014Z,99.10
2023-05-19T23:59:29.463Z,99.57
